Hauptseite
METAR-TAF:

METAR-TAF

Flughäfen :

Tiree Airport

Tiree, Schottland

Breite: 56-30N, Länge: 006-53W, Höhe: 12 m

Beobachtung

Neuester Wetterbericht von vor 42 Minuten, um 01:20 UTC
Wind 6 kt aus Nordost, variierte zwischen Nord/Nordost und Ost
Temperatur 10°C
Luftfeuchtigkeit 87%
Luftdruck 1027 hPa
Sichtweite 10 km oder mehr

METAR: EGPU 260120Z AUTO 04006KT 030V090 9999 NCD 10/08 Q1027

Zeit: 03:02 (02:02 UTC)


TAF: fehlend

Wetterbeobachtungen und Prognosen von mehr als 4000 Flughäfen (METAR und TAF Bericht).

Die verfügbaren Stationen werden durch gelbe und rote Markierungen auf der Karte dargestellt.

Führen Sie die Maus auf sie, um den Namen der Station zu sehen.

Darauf klicken, um die Beobachtung von Wetterbeobachtungen und Prognosen zu sehen.

Um die Karte zu ändern : klicken Sie auf den grünen Tasten mit einem schwarzen Kreuz Zum Vergrößern, auf den grünen Button mit einem Gedankenstrich zu verkleinern, oder auf die grünen Pfeile für benachbarte Karten.


METAR-TAF: